createdAt,value
2023-04-25T00:02:01.247Z,8.9
2023-04-25T00:07:11.538Z,8.9
2023-04-25T00:13:01.246Z,8.7
2023-04-25T00:18:11.532Z,8.6
2023-04-25T00:23:11.536Z,8.4
2023-04-25T00:29:01.301Z,8.4
2023-04-25T00:34:11.581Z,8.4
2023-04-25T00:40:01.246Z,8.3
2023-04-25T00:45:11.518Z,8.4
2023-04-25T00:51:01.233Z,8.2
2023-04-25T00:56:11.558Z,8
2023-04-25T01:02:01.279Z,8.1
2023-04-25T01:07:11.527Z,7.9
2023-04-25T01:13:01.265Z,7.7
2023-04-25T01:18:11.603Z,7.6
2023-04-25T01:24:01.254Z,7.5
2023-04-25T01:29:01.297Z,7.6
2023-04-25T01:34:11.548Z,7.5
2023-04-25T01:40:01.247Z,7.3
2023-04-25T01:45:11.536Z,7.3
2023-04-25T01:51:01.282Z,7.3
2023-04-25T01:56:11.543Z,7.2
2023-04-25T02:01:11.567Z,7.1
2023-04-25T02:07:01.250Z,7.1
2023-04-25T02:12:11.534Z,7.2
2023-04-25T02:18:01.390Z,7.2
2023-04-25T02:23:11.556Z,7.3
2023-04-25T02:29:01.324Z,7.6
2023-04-25T02:34:11.560Z,7.6
2023-04-25T02:39:11.546Z,7.6
2023-04-25T02:45:01.253Z,7.8
2023-04-25T02:50:01.287Z,7.7
2023-04-25T02:55:11.531Z,7.7
2023-04-25T03:01:01.281Z,7.6
2023-04-25T03:06:11.533Z,7.4
2023-04-25T03:11:11.581Z,7.3
2023-04-25T03:17:01.335Z,7.2
2023-04-25T03:22:11.589Z,7.2
2023-04-25T03:28:01.253Z,7.2
2023-04-25T03:33:11.768Z,7.1
2023-04-25T03:39:01.260Z,7.2
2023-04-25T03:44:11.535Z,7
2023-04-25T03:49:11.543Z,6.9
2023-04-25T03:55:01.286Z,6.8
2023-04-25T04:00:11.537Z,7
2023-04-25T04:06:01.256Z,7.3
2023-04-25T04:11:11.545Z,7.2
2023-04-25T04:16:11.580Z,7.4
2023-04-25T04:21:11.546Z,7.3
2023-04-25T04:27:01.272Z,7.4
2023-04-25T04:32:11.555Z,7.5
2023-04-25T04:37:11.545Z,7.4
2023-04-25T04:42:11.547Z,7.4
2023-04-25T04:47:11.576Z,7.7
2023-04-25T04:53:01.266Z,7.8
2023-04-25T04:58:11.545Z,7.9
2023-04-25T05:03:11.664Z,8
2023-04-25T05:09:01.284Z,7.9
2023-04-25T05:14:11.527Z,8
2023-04-25T05:19:11.570Z,7.9
2023-04-25T05:24:11.565Z,8
2023-04-25T05:29:11.642Z,8.1
2023-04-25T05:35:01.328Z,8.2
2023-04-25T05:40:11.543Z,8.4
2023-04-25T05:45:11.545Z,8.4
2023-04-25T05:51:01.269Z,8.8
2023-04-25T05:56:11.534Z,9
2023-04-25T06:01:11.607Z,9.1
2023-04-25T06:07:01.241Z,9.5
2023-04-25T06:12:11.527Z,10
2023-04-25T06:17:11.565Z,10.5
2023-04-25T06:23:01.248Z,10.6
2023-04-25T06:28:01.264Z,10.4
2023-04-25T06:33:01.344Z,10.4
2023-04-25T06:38:11.520Z,10.5
2023-04-25T06:43:11.565Z,10.5
2023-04-25T06:49:01.240Z,10.8
2023-04-25T06:54:01.268Z,11.7
2023-04-25T06:59:01.275Z,12.2
2023-04-25T07:04:11.760Z,11.4
2023-04-25T07:10:01.298Z,13.2
2023-04-25T07:15:01.279Z,12.9
2023-04-25T07:20:11.535Z,12.1
2023-04-25T07:25:11.565Z,9.8
2023-04-25T07:31:01.271Z,10.1
2023-04-25T07:36:11.547Z,9.6
2023-04-25T07:41:11.560Z,8.3
2023-04-25T07:47:03.151Z,8.4
2023-04-25T07:52:11.544Z,8
2023-04-25T07:57:11.554Z,7.4
2023-04-25T08:02:11.585Z,7.2
2023-04-25T08:08:01.276Z,6.8
2023-04-25T08:13:01.306Z,6.7
2023-04-25T08:18:11.660Z,7
2023-04-25T08:24:01.257Z,7.1
2023-04-25T08:29:01.288Z,7.3
2023-04-25T08:34:01.343Z,7.3
2023-04-25T08:39:11.557Z,7.5
2023-04-25T08:45:01.855Z,7.8
2023-04-25T08:50:01.284Z,7.4
2023-04-25T08:55:01.285Z,7.1
2023-04-25T09:00:11.550Z,6.9
2023-04-25T09:05:11.553Z,6
2023-04-25T09:10:11.566Z,6.2
2023-04-25T09:21:04.240Z,5.7
2023-04-25T09:26:01.299Z,6.4
2023-04-25T09:31:11.565Z,5.8
2023-04-25T09:37:01.276Z,5.1
2023-04-25T09:42:01.434Z,5.1
2023-04-25T09:47:01.298Z,5
2023-04-25T09:52:11.577Z,5.7
2023-04-25T09:58:01.288Z,6.2
2023-04-25T10:03:01.411Z,5.3
2023-04-25T10:08:11.575Z,6.1
2023-04-25T10:13:11.577Z,5.1
2023-04-25T10:19:01.298Z,5.6
2023-04-25T10:24:01.370Z,6.4
2023-04-25T10:29:11.654Z,5.5
2023-04-25T10:35:01.288Z,4.6
2023-04-25T10:40:11.610Z,5.1
2023-04-25T10:51:11.608Z,4.1
2023-04-25T10:56:12.556Z,4
2023-04-25T11:02:01.453Z,4.7
2023-04-25T11:07:06.354Z,5.3
2023-04-25T11:12:11.578Z,5.4
2023-04-25T11:17:11.655Z,5.4
2023-04-25T11:23:01.320Z,5.5
2023-04-25T11:28:01.319Z,5.8
2023-04-25T11:33:11.623Z,6.5
2023-04-25T11:38:11.611Z,5.7
2023-04-25T11:43:11.622Z,4.6
2023-04-25T11:49:01.298Z,4.5
2023-04-25T11:54:01.306Z,4.6
2023-04-25T11:59:12.293Z,4.2
2023-04-25T12:05:15.835Z,4.2
2023-04-25T12:10:11.588Z,4.4
2023-04-25T12:21:11.669Z,4.7
2023-04-25T12:27:01.305Z,4.3
2023-04-25T12:32:01.340Z,4.7
2023-04-25T12:37:11.685Z,5.2
2023-04-25T12:42:11.599Z,5.4
2023-04-25T12:47:11.673Z,4.4
2023-04-25T12:53:01.314Z,4.9
2023-04-25T12:58:01.317Z,4.1
2023-04-25T13:03:01.399Z,4.9
2023-04-25T13:08:01.326Z,4.4
2023-04-25T13:13:11.822Z,4.3
2023-04-25T13:19:01.311Z,3.8
2023-04-25T13:24:11.598Z,3.6
2023-04-25T13:29:11.622Z,3.6
2023-04-25T13:34:11.694Z,3.4
2023-04-25T13:40:01.306Z,3.2
2023-04-25T13:45:01.333Z,2.9
2023-04-25T13:50:11.624Z,3.4
2023-04-25T13:56:01.333Z,3.3
2023-04-25T14:01:01.423Z,3.1
2023-04-25T14:06:11.606Z,2.8
2023-04-25T14:12:01.311Z,3.1
2023-04-25T14:17:01.346Z,3.7
2023-04-25T14:22:11.621Z,3.4
2023-04-25T14:27:11.605Z,3.8
2023-04-25T14:32:11.635Z,3.7
2023-04-25T14:38:01.303Z,3.3
2023-04-25T14:43:01.329Z,4.3
2023-04-25T14:48:11.732Z,4.5
2023-04-25T14:53:11.616Z,3.9
2023-04-25T14:58:11.635Z,4.8
2023-04-25T15:10:01.439Z,3.8
2023-04-25T15:15:12.151Z,3.4
2023-04-25T15:21:01.339Z,3.4
2023-04-25T15:26:11.715Z,3.6
2023-04-25T15:32:01.384Z,3.8
2023-04-25T15:37:01.366Z,4.2
2023-04-25T15:42:01.365Z,4.4
2023-04-25T15:47:11.640Z,2.9
2023-04-25T15:53:01.343Z,3.7
2023-04-25T15:58:01.343Z,3.3
2023-04-25T16:03:01.495Z,1.8
2023-04-25T16:08:11.628Z,3
2023-04-25T16:13:11.632Z,3.6
2023-04-25T16:18:11.697Z,2.8
2023-04-25T16:23:11.677Z,3.4
2023-04-25T16:29:01.358Z,3.8
2023-04-25T16:34:01.371Z,3.4
2023-04-25T16:39:11.642Z,3.3
2023-04-25T16:44:11.650Z,2.9
2023-04-25T16:50:01.366Z,3
2023-04-25T16:55:11.658Z,4.2
2023-04-25T17:01:01.404Z,4.1
2023-04-25T17:06:01.367Z,4.6
2023-04-25T17:11:11.645Z,5
2023-04-25T17:17:01.485Z,3.8
2023-04-25T17:22:11.669Z,3.8
2023-04-25T17:28:01.373Z,3.1
2023-04-25T17:33:01.398Z,3.3
2023-04-25T17:38:11.655Z,4.2
2023-04-25T17:43:11.682Z,4.8
2023-04-25T17:49:01.369Z,4.6
2023-04-25T17:54:11.689Z,3.9
2023-04-25T17:59:11.713Z,4.3
2023-04-25T18:05:01.384Z,3.9
2023-04-25T18:10:11.645Z,5.4
2023-04-25T18:15:11.733Z,6
2023-04-25T18:21:01.365Z,6
2023-04-25T18:26:01.364Z,6.3
2023-04-25T18:31:11.840Z,6.5
2023-04-25T18:37:01.367Z,6.5
2023-04-25T18:42:06.467Z,6.4
2023-04-25T18:47:01.383Z,6.5
2023-04-25T18:52:11.680Z,6.5
2023-04-25T18:58:01.406Z,6.2
2023-04-25T19:03:11.852Z,6.2
2023-04-25T19:09:01.390Z,6.2
2023-04-25T19:14:11.648Z,6.2
2023-04-25T19:19:11.681Z,6.5
2023-04-25T19:25:09.830Z,6.3
2023-04-25T19:30:11.656Z,6.2
2023-04-25T19:36:01.403Z,6
2023-04-25T19:41:11.681Z,5.8
2023-04-25T19:46:11.709Z,5.9
2023-04-25T19:52:01.378Z,5.3
2023-04-25T19:57:11.634Z,5.3
2023-04-25T20:02:11.745Z,5.7
2023-04-25T20:07:11.671Z,5.8
2023-04-25T20:13:01.377Z,5.6
2023-04-25T20:18:11.681Z,5.4
2023-04-25T20:23:11.685Z,5.4
2023-04-25T20:29:01.384Z,5.4
2023-04-25T20:34:11.653Z,5.5
2023-04-25T20:39:11.683Z,5.6
2023-04-25T20:44:11.744Z,5.7
2023-04-25T20:50:01.407Z,5.8
2023-04-25T20:55:11.695Z,5.6
2023-04-25T21:00:11.679Z,5.6
2023-04-25T21:06:01.373Z,5.7
2023-04-25T21:11:01.373Z,5.7
2023-04-25T21:16:01.378Z,5.7
2023-04-25T21:21:11.698Z,5.9
2023-04-25T21:27:01.386Z,5.9
2023-04-25T21:32:01.382Z,5.9
2023-04-25T21:37:11.688Z,5.9
2023-04-25T21:48:01.416Z,5.8
2023-04-25T21:53:11.683Z,5.8
2023-04-25T21:59:01.377Z,6
2023-04-25T22:04:01.544Z,6.1
2023-04-25T22:09:11.651Z,6.1
2023-04-25T22:14:11.688Z,6.3
2023-04-25T22:19:11.692Z,6.4
2023-04-25T22:25:01.378Z,6.4
2023-04-25T22:30:01.396Z,6.5
2023-04-25T22:35:11.679Z,6.9
2023-04-25T22:40:11.705Z,6.9
2023-04-25T22:51:01.407Z,6.9
2023-04-25T22:56:11.683Z,6.8
2023-04-25T23:01:11.757Z,6.8
2023-04-25T23:07:01.378Z,6.9
2023-04-25T23:12:01.382Z,7
2023-04-25T23:17:11.790Z,7
2023-04-25T23:23:01.388Z,7.1
2023-04-25T23:28:01.385Z,7.2
2023-04-25T23:33:11.695Z,7.1
2023-04-25T23:38:11.699Z,6.8
2023-04-25T23:44:01.372Z,6.7
2023-04-25T23:49:01.381Z,6.7
2023-04-25T23:54:11.657Z,6.4
2023-04-25T23:59:11.654Z,6.3
